Aviation Digital Data Service (ADDS)

Output produced by METARs form (1103 UTC 30 April 2017)
found at http://www.aviationweather.gov/adds/metars/
 
MSLP 301050Z VRB02KT 9999 BKN059 26/21 Q1010 A2984 NOSIG
TAF MSLP 300325Z 3006/0106 07003KT 8000 SCT065 TX35/3020Z TN25/3012Z 
     PROB40 
     TEMPO 3006/3009 02008KT 5000 -SHRA 
     FM301400 11004KT 9999 FEW033 
     FM301900 21007G17KT 9999 FEW033 FEW040CB 
     FM010000 29007KT 9999 FEW033 SCT070 
     PROB40 
     TEMPO 0104/0106 03008KT 8000 -SHRA
       
MSSS 300550Z 36004KT CAVOK 25/21 Q1015 A2999
TAF MSSS 300925Z 3012/0112 35003KT 3000 HZ FEW023 TX32/3019Z TN25/0111Z 
     FM301500 16006KT 6000 SCT033 
     FM301900 19012KT 9999 SCT033 FEW040CB 
     FM010000 21004KT 9999 SCT043 
     PROB40 
     TEMPO 0101/0104 35008KT 8000 SHRA 
     FM010400 35006KT 9999 FEW023